createdAt,value
2023-04-08T00:01:46.105Z,18.43
2023-04-08T00:04:14.757Z,18.80
2023-04-08T00:06:43.371Z,19.10
2023-04-08T00:09:11.365Z,19.93
2023-04-08T00:11:39.304Z,18.70
2023-04-08T00:14:07.441Z,19.93
2023-04-08T00:16:35.562Z,19.33
2023-04-08T00:19:06.615Z,19.97
2023-04-08T00:21:34.921Z,21.30
2023-04-08T00:24:02.979Z,19.50
2023-04-08T00:26:31.018Z,20.60
2023-04-08T00:28:59.114Z,20.33
2023-04-08T00:31:27.313Z,20.37
2023-04-08T00:33:55.294Z,18.63
2023-04-08T00:36:24.708Z,19.23
2023-04-08T00:38:52.592Z,18.23
2023-04-08T00:41:20.600Z,19.13
2023-04-08T00:43:48.950Z,18.37
2023-04-08T00:46:17.061Z,19.40
2023-04-08T00:48:45.329Z,18.90
2023-04-08T00:51:13.496Z,19.87
2023-04-08T00:53:42.890Z,18.87
2023-04-08T00:56:10.963Z,19.03
2023-04-08T00:58:39.675Z,20.27
2023-04-08T01:01:13.727Z,19.93
2023-04-08T01:03:51.965Z,19.50
2023-04-08T01:06:29.780Z,16.90
2023-04-08T01:09:01.921Z,18.13
2023-04-08T01:11:33.933Z,18.27
2023-04-08T01:14:07.337Z,19.23
2023-04-08T01:16:36.142Z,18.10
2023-04-08T01:19:04.990Z,18.53
2023-04-08T01:21:33.771Z,18.93
2023-04-08T01:24:10.661Z,18.27
2023-04-08T01:26:41.838Z,17.10
2023-04-08T01:29:12.008Z,17.17
2023-04-08T01:31:43.197Z,17.07
2023-04-08T01:34:12.959Z,17.07
2023-04-08T01:36:42.626Z,17.20
2023-04-08T01:39:11.086Z,18.37
2023-04-08T01:41:41.103Z,16.20
2023-04-08T01:44:10.845Z,16.70
2023-04-08T01:46:40.414Z,17.23
2023-04-08T01:49:09.071Z,17.80
2023-04-08T01:51:39.054Z,17.87
2023-04-08T01:54:07.136Z,17.83
2023-04-08T01:56:39.188Z,18.27
2023-04-08T01:59:12.808Z,18.33
2023-04-08T02:01:41.938Z,18.20
2023-04-08T02:04:10.020Z,18.77
2023-04-08T02:06:39.255Z,17.73
2023-04-08T02:09:08.200Z,17.80
2023-04-08T02:11:36.163Z,17.97
2023-04-08T02:14:04.087Z,18.73
2023-04-08T02:16:41.367Z,18.30
2023-04-08T02:19:13.149Z,17.63
2023-04-08T02:21:47.937Z,19.13
2023-04-08T02:24:18.525Z,17.90
2023-04-08T02:26:49.101Z,18.17
2023-04-08T02:29:18.548Z,19.80
2023-04-08T02:31:51.533Z,19.87
2023-04-08T02:34:22.204Z,17.73
2023-04-08T02:36:54.079Z,18.87
2023-04-08T02:39:22.126Z,19.07
2023-04-08T02:41:50.062Z,19.23
2023-04-08T02:44:18.133Z,18.47
2023-04-08T02:46:47.513Z,18.83
2023-04-08T02:49:15.596Z,17.77
2023-04-08T02:51:44.270Z,19.20
2023-04-08T02:54:12.202Z,20.73
2023-04-08T02:56:40.304Z,17.67
2023-04-08T02:59:08.359Z,17.57
2023-04-08T03:01:36.528Z,17.97
2023-04-08T03:04:06.387Z,18.33
2023-04-08T03:06:34.767Z,17.20
2023-04-08T03:09:02.997Z,18.03
2023-04-08T03:11:31.184Z,17.83
2023-04-08T03:13:59.694Z,17.60
2023-04-08T03:16:28.181Z,17.20
2023-04-08T03:18:56.190Z,17.20
2023-04-08T03:21:27.162Z,16.00
2023-04-08T03:23:55.292Z,17.07
2023-04-08T03:26:23.259Z,16.60
2023-04-08T03:28:51.648Z,17.70
2023-04-08T03:31:21.313Z,16.23
2023-04-08T03:33:49.445Z,18.50
2023-04-08T03:36:17.785Z,16.63
2023-04-08T03:38:47.194Z,17.73
2023-04-08T03:41:15.201Z,17.07
2023-04-08T03:43:43.445Z,18.17
2023-04-08T03:46:11.474Z,17.73
2023-04-08T03:48:39.501Z,16.40
2023-04-08T03:51:07.557Z,18.37
2023-04-08T03:53:35.709Z,16.87
2023-04-08T03:56:05.095Z,16.90
2023-04-08T03:58:33.492Z,17.07
2023-04-08T04:01:01.484Z,17.13
2023-04-08T04:03:29.697Z,15.53
2023-04-08T04:05:58.159Z,16.10
2023-04-08T04:08:26.112Z,15.03
2023-04-08T04:10:54.236Z,14.77
2023-04-08T04:13:23.953Z,15.03
2023-04-08T04:15:51.967Z,14.80
2023-04-08T04:18:20.087Z,15.43
2023-04-08T04:20:48.365Z,15.20
2023-04-08T04:23:16.352Z,13.60
2023-04-08T04:25:44.846Z,14.33
2023-04-08T04:28:12.817Z,15.17
2023-04-08T04:30:42.187Z,14.70
2023-04-08T04:33:10.225Z,15.03
2023-04-08T04:35:38.372Z,14.70
2023-04-08T04:38:10.703Z,13.60
2023-04-08T04:40:38.953Z,14.40
2023-04-08T04:43:07.122Z,14.00
2023-04-08T04:45:35.126Z,15.23
2023-04-08T04:48:04.961Z,15.57
2023-04-08T04:50:33.134Z,15.30
2023-04-08T04:53:01.412Z,15.60
2023-04-08T04:55:30.063Z,16.30
2023-04-08T04:57:58.022Z,15.20
2023-04-08T05:00:26.007Z,15.13
2023-04-08T05:02:54.522Z,15.17
2023-04-08T05:05:23.888Z,15.47
2023-04-08T05:07:51.975Z,14.83
2023-04-08T05:10:20.906Z,14.57
2023-04-08T05:12:48.759Z,14.97
2023-04-08T05:15:17.029Z,15.70
2023-04-08T05:17:44.984Z,15.03
2023-04-08T05:20:12.981Z,15.03
2023-04-08T05:22:42.657Z,15.63
2023-04-08T05:25:11.835Z,15.10
2023-04-08T05:27:40.699Z,16.47
2023-04-08T05:30:10.121Z,14.97
2023-04-08T05:32:38.405Z,15.10
2023-04-08T05:35:07.323Z,15.60
2023-04-08T05:37:37.480Z,15.60
2023-04-08T05:40:08.596Z,14.67
2023-04-08T05:42:39.576Z,14.37
2023-04-08T05:45:09.224Z,15.47
2023-04-08T05:47:37.293Z,14.70
2023-04-08T05:50:05.605Z,14.90
2023-04-08T05:52:33.869Z,14.97
2023-04-08T05:55:01.872Z,15.20
2023-04-08T05:57:31.224Z,14.87
2023-04-08T05:59:59.636Z,14.50
2023-04-08T06:02:28.052Z,15.67
2023-04-08T06:04:56.657Z,15.63
2023-04-08T06:07:24.935Z,14.47
2023-04-08T06:09:52.883Z,14.20
2023-04-08T06:12:21.113Z,14.23
2023-04-08T06:14:55.633Z,15.17
2023-04-08T06:17:23.909Z,15.30
2023-04-08T06:19:52.055Z,15.53
2023-04-08T06:22:20.067Z,13.90
2023-04-08T06:24:48.858Z,14.50
2023-04-08T06:27:17.203Z,13.87
2023-04-08T06:29:45.495Z,14.87
2023-04-08T06:32:15.062Z,15.03
2023-04-08T06:34:43.244Z,15.23
2023-04-08T06:37:11.475Z,13.93
2023-04-08T06:39:39.504Z,15.30
2023-04-08T06:42:07.589Z,14.47
2023-04-08T06:44:36.293Z,14.60
2023-04-08T06:47:04.876Z,14.50
2023-04-08T06:49:35.306Z,14.80
2023-04-08T06:52:04.725Z,15.67
2023-04-08T06:54:33.372Z,14.70
2023-04-08T06:57:02.278Z,14.37
2023-04-08T06:59:31.527Z,15.97
2023-04-08T07:01:59.834Z,13.77
2023-04-08T07:04:28.348Z,15.03
2023-04-08T07:06:58.403Z,15.70
2023-04-08T07:09:26.602Z,15.33
2023-04-08T07:11:54.597Z,13.53
2023-04-08T07:14:22.914Z,16.10
2023-04-08T07:16:50.951Z,14.40
2023-04-08T07:19:19.260Z,14.77
2023-04-08T07:21:47.468Z,14.27
2023-04-08T07:24:16.924Z,14.43
2023-04-08T07:26:44.896Z,14.53
2023-04-08T07:29:13.179Z,15.20
2023-04-08T07:31:41.154Z,15.00
2023-04-08T07:34:09.145Z,13.90
2023-04-08T07:36:37.528Z,15.03
2023-04-08T07:39:05.746Z,13.90
2023-04-08T07:41:35.574Z,15.37
2023-04-08T07:44:03.676Z,15.10
2023-04-08T07:46:31.808Z,13.37
2023-04-08T07:48:59.900Z,14.43
2023-04-08T07:51:28.675Z,14.60
2023-04-08T07:53:57.062Z,14.67
2023-04-08T07:56:25.011Z,14.83
2023-04-08T07:58:55.273Z,14.70
2023-04-08T08:01:24.736Z,14.73
2023-04-08T08:03:54.418Z,14.40
2023-04-08T08:06:23.415Z,14.93
2023-04-08T08:08:51.321Z,14.83
2023-04-08T08:11:19.398Z,13.60
2023-04-08T08:13:47.383Z,14.20
2023-04-08T08:16:16.802Z,14.70
2023-04-08T08:18:44.922Z,13.67
2023-04-08T08:21:13.202Z,13.43
2023-04-08T08:23:41.276Z,12.83
2023-04-08T08:26:11.290Z,13.30
2023-04-08T08:28:39.560Z,13.27
2023-04-08T08:31:07.927Z,13.53
2023-04-08T08:33:37.492Z,12.50
2023-04-08T08:36:08.143Z,11.70
2023-04-08T08:38:36.253Z,12.77
2023-04-08T08:41:05.104Z,13.80
2023-04-08T08:43:34.821Z,12.60
2023-04-08T08:46:03.438Z,11.33
2023-04-08T08:48:32.795Z,11.13
2023-04-08T08:51:02.680Z,12.00
2023-04-08T08:53:35.119Z,11.50
2023-04-08T08:58:34.870Z,12.53
2023-04-08T09:01:02.811Z,12.30
2023-04-08T09:03:31.393Z,13.17
2023-04-08T09:06:03.966Z,12.37
2023-04-08T09:08:33.833Z,13.53
2023-04-08T09:11:16.338Z,12.93
2023-04-08T09:13:45.224Z,13.17
2023-04-08T09:16:15.128Z,12.77
2023-04-08T09:18:44.763Z,11.87
2023-04-08T09:21:17.352Z,12.93
2023-04-08T09:23:47.037Z,12.87
2023-04-08T09:26:17.058Z,12.07
2023-04-08T09:28:45.974Z,12.80
2023-04-08T09:31:21.842Z,13.00
2023-04-08T09:33:51.586Z,12.17
2023-04-08T09:36:21.150Z,13.00
2023-04-08T09:38:49.518Z,13.40
2023-04-08T09:41:19.062Z,13.07
2023-04-08T09:43:50.607Z,12.97
2023-04-08T09:46:20.584Z,13.20
2023-04-08T09:48:52.466Z,12.37
2023-04-08T09:51:25.462Z,12.70
2023-04-08T09:54:00.762Z,13.23
2023-04-08T09:56:39.683Z,13.40
2023-04-08T09:59:14.969Z,12.03
2023-04-08T10:01:47.860Z,10.95
2023-04-08T10:04:18.517Z,11.45
2023-04-08T10:06:54.562Z,12.40
2023-04-08T10:09:23.515Z,12.90
2023-04-08T10:11:52.611Z,11.93
2023-04-08T10:14:22.491Z,12.30
2023-04-08T10:16:50.622Z,14.23
2023-04-08T10:19:38.642Z,12.95
2023-04-08T10:22:48.854Z,13.75
2023-04-08T10:25:35.240Z,13.10
2023-04-08T10:28:23.514Z,13.77
2023-04-08T10:30:52.597Z,14.10
2023-04-08T10:33:23.470Z,14.10
2023-04-08T10:35:55.406Z,13.05
2023-04-08T10:38:25.198Z,12.80
2023-04-08T10:40:55.422Z,13.02
2023-04-08T10:43:24.302Z,13.25
2023-04-08T10:45:54.640Z,13.50
2023-04-08T10:48:24.805Z,12.68
2023-04-08T10:50:56.722Z,12.07
2023-04-08T10:53:30.804Z,11.75
2023-04-08T10:56:06.411Z,11.93
2023-04-08T10:58:35.674Z,13.05
2023-04-08T11:01:08.418Z,12.73
2023-04-08T11:03:38.437Z,13.80
2023-04-08T11:06:07.517Z,12.88
2023-04-08T11:08:38.775Z,13.07
2023-04-08T11:11:09.459Z,12.43
2023-04-08T11:13:38.477Z,12.43
2023-04-08T11:16:17.805Z,12.35
2023-04-08T11:18:46.907Z,11.98
2023-04-08T11:21:14.957Z,12.52
2023-04-08T11:23:44.520Z,10.85
2023-04-08T11:26:12.878Z,12.35
2023-04-08T11:28:40.965Z,12.10
2023-04-08T11:31:09.227Z,11.73
2023-04-08T11:33:37.946Z,11.55
2023-04-08T11:36:06.366Z,11.40
2023-04-08T11:38:34.418Z,11.88
2023-04-08T11:41:04.394Z,11.85
2023-04-08T11:43:32.714Z,11.02
2023-04-08T11:46:00.884Z,12.70
2023-04-08T11:48:34.147Z,11.02
2023-04-08T11:51:05.746Z,12.02
2023-04-08T11:53:34.129Z,11.50
2023-04-08T11:58:56.481Z,12.65
2023-04-08T12:01:24.380Z,12.05
2023-04-08T12:04:03.184Z,11.93
2023-04-08T12:06:31.946Z,11.73
2023-04-08T12:08:59.860Z,12.10
2023-04-08T12:11:28.811Z,11.93
2023-04-08T12:13:58.067Z,12.77
2023-04-08T12:16:26.259Z,14.45
2023-04-08T12:18:54.376Z,13.13
2023-04-08T12:21:22.412Z,12.52
2023-04-08T12:23:50.766Z,12.88
2023-04-08T12:26:20.078Z,13.90
2023-04-08T12:28:47.993Z,12.18
2023-04-08T12:31:17.368Z,12.85
2023-04-08T12:33:45.495Z,12.90
2023-04-08T12:36:13.846Z,13.18
2023-04-08T12:38:41.787Z,13.43
2023-04-08T12:41:09.692Z,13.73
2023-04-08T12:43:39.013Z,13.48
2023-04-08T12:46:06.908Z,13.02
2023-04-08T12:48:36.947Z,12.85
2023-04-08T12:51:04.985Z,13.73
2023-04-08T12:53:32.846Z,13.55
2023-04-08T12:56:01.253Z,14.73
2023-04-08T12:58:29.180Z,13.60
2023-04-08T13:00:57.127Z,13.05
2023-04-08T13:03:25.245Z,13.82
2023-04-08T13:05:54.771Z,13.48
2023-04-08T13:08:23.282Z,13.23
2023-04-08T13:10:51.515Z,12.45
2023-04-08T13:13:19.574Z,11.48
2023-04-08T13:15:47.761Z,12.13
2023-04-08T13:18:16.099Z,13.50
2023-04-08T13:20:43.977Z,12.63
2023-04-08T13:23:14.568Z,13.00
2023-04-08T13:25:42.689Z,13.63
2023-04-08T13:28:10.715Z,12.88
2023-04-08T13:30:38.670Z,12.30
2023-04-08T13:33:07.268Z,12.43
2023-04-08T13:35:35.321Z,13.95
2023-04-08T13:38:03.274Z,13.55
2023-04-08T13:40:33.528Z,13.35
2023-04-08T13:43:01.647Z,12.55
2023-04-08T13:45:29.579Z,13.23
2023-04-08T13:47:58.140Z,13.50
2023-04-08T13:50:26.244Z,12.35
2023-04-08T13:52:54.036Z,12.60
2023-04-08T13:55:22.387Z,12.45
2023-04-08T13:57:51.586Z,12.27
2023-04-08T14:00:19.443Z,12.45
2023-04-08T14:02:47.730Z,13.23
2023-04-08T14:05:15.788Z,11.93
2023-04-08T14:07:43.642Z,12.80
2023-04-08T14:10:12.040Z,11.88
2023-04-08T14:12:39.875Z,12.20
2023-04-08T14:15:10.746Z,12.63
2023-04-08T14:17:38.754Z,12.45
2023-04-08T14:20:08.150Z,13.13
2023-04-08T14:22:36.074Z,13.27
2023-04-08T14:25:04.001Z,13.48
2023-04-08T14:27:32.262Z,12.75
2023-04-08T14:30:00.460Z,13.90
2023-04-08T14:32:29.957Z,14.00
2023-04-08T14:34:57.866Z,13.15
2023-04-08T14:37:25.699Z,13.52
2023-04-08T14:39:53.813Z,13.68
2023-04-08T14:42:22.561Z,12.15
2023-04-08T14:44:50.332Z,13.45
2023-04-08T14:47:18.523Z,13.35
2023-04-08T14:49:48.596Z,13.73
2023-04-08T14:52:16.453Z,13.55
2023-04-08T14:54:45.293Z,13.48
2023-04-08T14:57:13.527Z,12.38
2023-04-08T14:59:41.484Z,12.88
2023-04-08T15:02:09.888Z,12.90
2023-04-08T15:04:37.819Z,13.30
2023-04-08T15:07:07.601Z,13.35
2023-04-08T15:09:35.458Z,14.27
2023-04-08T15:12:03.254Z,14.23
2023-04-08T15:14:31.043Z,15.15
2023-04-08T15:16:58.970Z,14.63
2023-04-08T15:19:26.806Z,14.75
2023-04-08T15:21:54.619Z,11.70
2023-04-08T15:24:24.208Z,12.68
2023-04-08T15:26:52.146Z,11.77
2023-04-08T15:29:19.988Z,13.70
2023-04-08T15:31:47.886Z,13.30
2023-04-08T15:34:15.717Z,13.00
2023-04-08T15:36:43.517Z,13.57
2023-04-08T15:39:12.064Z,13.57
2023-04-08T15:41:41.698Z,13.38
2023-04-08T15:44:09.636Z,12.70
2023-04-08T15:46:38.135Z,13.18
2023-04-08T15:49:06.207Z,13.65
2023-04-08T15:51:34.819Z,13.02
2023-04-08T15:54:03.149Z,13.55
2023-04-08T15:56:31.132Z,13.73
2023-04-08T15:59:00.334Z,14.10
2023-04-08T16:01:28.485Z,14.98
2023-04-08T16:03:56.663Z,14.57
2023-04-08T16:06:24.568Z,16.80
2023-04-08T16:08:53.431Z,14.00
2023-04-08T16:11:21.942Z,14.20
2023-04-08T16:13:49.775Z,13.77
2023-04-08T16:16:20.206Z,13.45
2023-04-08T16:18:48.595Z,13.98
2023-04-08T16:21:17.208Z,13.35
2023-04-08T16:23:45.129Z,12.98
2023-04-08T16:26:12.998Z,14.10
2023-04-08T16:28:40.876Z,14.38
2023-04-08T16:31:09.073Z,14.07
2023-04-08T16:33:38.360Z,14.55
2023-04-08T16:36:06.571Z,15.35
2023-04-08T16:38:34.441Z,15.50
2023-04-08T16:41:04.415Z,15.10
2023-04-08T16:43:32.220Z,18.92
2023-04-08T16:46:00.446Z,15.43
2023-04-08T16:48:28.248Z,19.35
2023-04-08T16:50:57.761Z,21.37
2023-04-08T16:53:25.685Z,18.80
2023-04-08T16:55:53.707Z,17.80
2023-04-08T16:58:21.740Z,18.67
2023-04-08T17:00:49.980Z,16.30
2023-04-08T17:03:17.961Z,17.07
2023-04-08T17:05:45.940Z,17.33
2023-04-08T17:08:15.790Z,16.40
2023-04-08T17:10:45.308Z,16.07
2023-04-08T17:13:14.931Z,15.83
2023-04-08T17:15:42.906Z,15.77
2023-04-08T17:18:10.728Z,15.27
2023-04-08T17:20:38.598Z,16.50
2023-04-08T17:23:07.242Z,15.23
2023-04-08T17:25:36.518Z,15.50
2023-04-08T17:28:04.286Z,15.73
2023-04-08T17:30:32.450Z,18.43
2023-04-08T17:33:00.321Z,16.50
2023-04-08T17:35:28.263Z,18.33
2023-04-08T17:37:56.695Z,16.80
2023-04-08T17:40:24.532Z,16.83
2023-04-08T17:42:53.718Z,15.77
2023-04-08T17:45:21.792Z,16.73
2023-04-08T17:47:49.551Z,19.23
2023-04-08T17:50:17.411Z,18.07
2023-04-08T17:52:46.198Z,18.43
2023-04-08T17:55:14.718Z,17.40
2023-04-08T17:57:42.876Z,19.43
2023-04-08T18:00:13.313Z,22.53
2023-04-08T18:02:41.932Z,20.83
2023-04-08T18:05:10.928Z,19.17
2023-04-08T18:07:39.486Z,21.17
2023-04-08T18:10:08.887Z,24.90
2023-04-08T18:12:36.870Z,26.20
2023-04-08T18:15:05.276Z,23.13
2023-04-08T18:17:35.974Z,21.63
2023-04-08T18:20:04.027Z,21.47
2023-04-08T18:22:31.990Z,17.87
2023-04-08T18:24:59.846Z,19.37
2023-04-08T18:27:27.876Z,17.60
2023-04-08T18:29:55.980Z,19.67
2023-04-08T18:32:23.822Z,17.83
2023-04-08T18:34:53.589Z,19.63
2023-04-08T18:37:22.124Z,19.33
2023-04-08T18:39:50.071Z,20.23
2023-04-08T18:42:18.162Z,18.53
2023-04-08T18:44:46.377Z,19.90
2023-04-08T18:47:14.456Z,19.20
2023-04-08T18:49:42.443Z,19.83
2023-04-08T18:52:12.152Z,17.77
2023-04-08T18:54:40.084Z,18.07
2023-04-08T18:57:07.932Z,17.80
2023-04-08T18:59:36.181Z,17.30
2023-04-08T19:02:04.128Z,17.73
2023-04-08T19:04:32.157Z,17.97
2023-04-08T19:07:00.443Z,17.00
2023-04-08T19:09:30.164Z,16.13
2023-04-08T19:11:58.134Z,17.40
2023-04-08T19:14:26.127Z,17.63
2023-04-08T19:16:53.867Z,17.93
2023-04-08T19:19:21.985Z,17.87
2023-04-08T19:21:49.912Z,16.80
2023-04-08T19:24:17.788Z,18.23
2023-04-08T19:26:49.359Z,18.57
2023-04-08T19:29:19.597Z,17.20
2023-04-08T19:31:47.637Z,17.00
2023-04-08T19:34:15.620Z,19.03
2023-04-08T19:36:43.503Z,17.87
2023-04-08T19:39:11.269Z,17.60
2023-04-08T19:41:39.132Z,16.33
2023-04-08T19:44:08.648Z,16.53
2023-04-08T19:46:36.531Z,16.77
2023-04-08T19:49:04.515Z,17.33
2023-04-08T19:51:32.968Z,17.47
2023-04-08T19:54:00.883Z,16.60
2023-04-08T19:56:32.516Z,17.37
2023-04-08T19:59:01.471Z,16.50
2023-04-08T20:01:31.105Z,17.47
2023-04-08T20:03:59.087Z,17.37
2023-04-08T20:06:27.172Z,17.33
2023-04-08T20:08:55.710Z,18.17
2023-04-08T20:11:23.705Z,18.77
2023-04-08T20:13:51.718Z,19.10
2023-04-08T20:16:20.758Z,17.57
2023-04-08T20:18:50.293Z,19.53
2023-04-08T20:21:18.588Z,19.27
2023-04-08T20:23:46.409Z,19.33
2023-04-08T20:26:15.701Z,18.53
2023-04-08T20:28:44.737Z,18.60
2023-04-08T20:31:13.134Z,18.23
2023-04-08T20:33:44.001Z,18.33
2023-04-08T20:36:13.860Z,18.10
2023-04-08T20:38:42.434Z,18.13
2023-04-08T20:41:10.585Z,19.10
2023-04-08T20:43:39.570Z,20.60
2023-04-08T20:46:07.620Z,19.27
2023-04-08T20:48:36.155Z,17.63
2023-04-08T20:51:04.251Z,19.07
2023-04-08T20:53:34.498Z,18.20
2023-04-08T20:56:02.967Z,18.60
2023-04-08T20:58:31.187Z,19.43
2023-04-08T21:00:59.882Z,20.33
2023-04-08T21:03:28.206Z,20.43
2023-04-08T21:05:56.899Z,19.80
2023-04-08T21:08:24.702Z,18.57
2023-04-08T21:10:54.620Z,18.70
2023-04-08T21:13:22.746Z,19.63
2023-04-08T21:15:50.564Z,20.37
2023-04-08T21:18:18.425Z,20.73
2023-04-08T21:20:46.846Z,21.00
2023-04-08T21:23:14.803Z,22.10
2023-04-08T21:25:42.669Z,23.40
2023-04-08T21:28:11.879Z,20.43
2023-04-08T21:30:39.677Z,23.10
2023-04-08T21:33:08.003Z,21.03
2023-04-08T21:35:36.294Z,24.60
2023-04-08T21:38:04.271Z,22.23
2023-04-08T21:40:32.139Z,23.20
2023-04-08T21:43:00.249Z,24.40
2023-04-08T21:45:29.969Z,21.53
2023-04-08T21:47:57.781Z,22.73
2023-04-08T21:50:26.188Z,23.30
2023-04-08T21:52:53.919Z,22.10
2023-04-08T21:55:21.749Z,21.70
2023-04-08T21:57:49.914Z,22.03
2023-04-08T22:00:18.071Z,20.60
2023-04-08T22:02:47.531Z,22.43
2023-04-08T22:05:15.718Z,19.53
2023-04-08T22:07:43.775Z,20.03
2023-04-08T22:10:12.626Z,21.50
2023-04-08T22:12:40.894Z,20.70
2023-04-08T22:15:10.035Z,21.77
2023-04-08T22:17:38.036Z,20.63
2023-04-08T22:20:08.536Z,20.37
2023-04-08T22:22:36.481Z,19.80
2023-04-08T22:25:04.424Z,19.30
2023-04-08T22:27:33.124Z,20.80
2023-04-08T22:30:01.013Z,21.53
2023-04-08T22:32:28.960Z,19.47
2023-04-08T22:34:57.028Z,18.00
2023-04-08T22:37:26.186Z,20.23
2023-04-08T22:39:54.078Z,20.63
2023-04-08T22:42:22.259Z,19.30
2023-04-08T22:44:50.055Z,19.20
2023-04-08T22:47:18.210Z,20.67
2023-04-08T22:49:46.286Z,19.90
2023-04-08T22:52:14.128Z,21.40
2023-04-08T22:54:43.372Z,21.83
2023-04-08T22:57:11.468Z,20.37
2023-04-08T22:59:39.295Z,18.87
2023-04-08T23:02:07.331Z,20.53
2023-04-08T23:04:35.412Z,21.70
2023-04-08T23:07:03.218Z,19.50
2023-04-08T23:09:30.995Z,19.77
2023-04-08T23:12:01.689Z,20.47
2023-04-08T23:14:30.177Z,21.40
2023-04-08T23:16:58.073Z,18.87
2023-04-08T23:19:26.041Z,20.60
2023-04-08T23:21:53.869Z,20.20
2023-04-08T23:24:21.656Z,19.07
2023-04-08T23:26:49.998Z,19.73
2023-04-08T23:29:19.299Z,18.37
2023-04-08T23:31:47.142Z,18.40
2023-04-08T23:34:15.244Z,17.23
2023-04-08T23:36:43.058Z,17.60
2023-04-08T23:39:11.033Z,18.63
2023-04-08T23:41:39.088Z,19.47
2023-04-08T23:44:07.293Z,16.93
2023-04-08T23:46:36.530Z,17.10
2023-04-08T23:49:05.072Z,16.83
2023-04-08T23:51:32.863Z,18.93
2023-04-08T23:54:00.774Z,19.87
2023-04-08T23:56:28.772Z,18.97
2023-04-08T23:58:56.706Z,16.70
